Time;durP1;ratioP1;P1;durP2;ratioP2;P2;SDS_P1;SDS_P2;PMS_P1;PMS_P2;Temp;Humidity;BMP_temperature;BMP_pressure;BME280_temperature;BME280_humidity;BME280_pressure;Samples;Min_cycle;Max_cycle;Signal;HPM_P1;HPM_P2
2022/12/28 00:01:30;;;;;;;0.80;0.80;;;4.20;99.90;;;3.94;98.23;101436.16;4973452;28;20235;-64
2022/12/28 00:04:00;;;;;;;3.58;2.53;;;4.20;99.90;;;4.12;97.57;101430.41;4981590;28;20231;-65
2022/12/28 00:06:27;;;;;;;3.25;1.83;;;4.20;99.90;;;4.11;97.91;101433.06;4984952;28;20211;-65
2022/12/28 00:08:55;;;;;;;0.65;0.65;;;4.20;99.90;;;4.17;98.13;101430.25;4985504;28;20724;-65
2022/12/28 00:11:25;;;;;;;0.88;0.73;;;4.20;99.90;;;4.14;98.04;101417.44;4970616;28;20225;-64
2022/12/28 00:13:58;;;;;;;0.95;0.95;;;4.20;99.90;;;4.22;98.04;101418.03;4972086;28;20247;-65
2022/12/28 00:16:30;;;;;;;0.70;0.70;;;4.20;99.90;;;4.22;97.42;101416.28;4973700;28;20220;-65
2022/12/28 00:18:59;;;;;;;5.25;2.45;;;4.30;99.90;;;4.33;96.67;101403.84;4989427;28;20742;-65
2022/12/28 00:21:27;;;;;;;2.55;2.08;;;4.30;99.90;;;4.37;96.83;101408.03;4985591;28;20760;-65
2022/12/28 00:23:58;;;;;;;4.65;2.50;;;4.40;99.90;;;4.39;96.28;101393.31;4978441;28;20672;-65
2022/12/28 00:26:27;;;;;;;3.10;2.55;;;4.40;99.90;;;4.40;96.57;101394.16;4974124;28;20625;-65
2022/12/28 00:28:56;;;;;;;2.65;2.45;;;4.40;99.90;;;4.34;97.01;101394.38;4986177;28;20210;-65
2022/12/28 00:31:30;;;;;;;3.42;3.05;;;4.40;99.90;;;4.50;96.19;101388.63;4993969;28;20228;-65
2022/12/28 00:33:57;;;;;;;3.50;3.17;;;4.50;99.90;;;4.57;96.32;101381.50;4993824;28;20245;-65
2022/12/28 00:36:25;;;;;;;3.83;2.58;;;4.50;99.90;;;4.67;95.59;101377.69;4994528;28;20226;-65
2022/12/28 00:39:12;;;;;;;2.58;2.35;;;4.50;99.90;;;4.62;95.38;101370.09;4984213;28;20242;-65
2022/12/28 00:41:39;;;;;;;3.17;1.92;;;4.60;99.90;;;4.47;96.82;101355.13;4985178;28;20217;-65
2022/12/28 00:44:05;;;;;;;1.58;1.45;;;4.60;99.90;;;4.44;97.08;101359.56;4992692;28;20668;-65
2022/12/28 00:46:32;;;;;;;1.92;1.83;;;4.60;99.90;;;4.48;96.40;101346.50;4979408;28;20551;-65
2022/12/28 00:48:59;;;;;;;5.45;2.05;;;4.60;99.90;;;4.43;97.75;101344.97;4981267;28;20652;-65
2022/12/28 00:51:26;;;;;;;5.82;2.33;;;4.60;99.90;;;4.39;98.08;101341.63;4992979;28;20775;-64
2022/12/28 00:53:53;;;;;;;1.15;0.98;;;4.50;99.90;;;4.45;97.55;101338.84;4985691;28;20207;-65
2022/12/28 00:56:21;;;;;;;1.20;1.00;;;4.50;99.90;;;4.44;98.19;101328.56;4985316;28;20567;-65
2022/12/28 00:58:49;;;;;;;0.80;0.80;;;4.50;99.90;;;4.55;97.71;101324.69;4986878;28;20230;-65
2022/12/28 01:01:21;;;;;;;2.83;2.63;;;4.60;99.90;;;4.48;97.89;101324.97;4975505;28;20223;-65
2022/12/28 01:03:48;;;;;;;5.20;1.42;;;4.60;99.90;;;4.62;97.78;101315.81;4977881;28;20198;-64
2022/12/28 01:06:18;;;;;;;0.50;0.50;;;4.60;99.90;;;4.72;96.83;101304.25;4993206;28;20222;-65
2022/12/28 01:08:45;;;;;;;1.55;1.38;;;4.70;99.90;;;4.76;96.48;101304.13;4992916;28;20592;-64
2022/12/28 01:11:22;;;;;;;5.70;4.35;;;4.70;99.90;;;4.76;96.19;101304.97;4990757;28;20249;-65
2022/12/28 01:13:51;;;;;;;1.10;1.00;;;4.70;99.90;;;4.69;96.57;101300.91;4977516;28;20214;-65
2022/12/28 01:16:28;;;;;;;2.70;2.22;;;4.70;99.90;;;4.67;96.90;101300.13;4987514;28;20229;-64
2022/12/28 01:18:59;;;;;;;0.57;0.57;;;4.80;99.90;;;4.64;97.52;101287.34;4979166;28;20667;-65
2022/12/28 01:21:29;;;;;;;1.45;1.35;;;4.80;99.90;;;4.75;97.04;101277.41;4988689;28;20578;-65
2022/12/28 01:24:00;;;;;;;1.55;1.40;;;4.80;99.90;;;4.73;96.82;101269.72;4991879;28;20199;-65
2022/12/28 01:26:28;;;;;;;1.27;0.95;;;4.80;99.90;;;4.73;97.24;101268.88;4979763;28;20215;-65
2022/12/28 01:28:55;;;;;;;2.13;1.00;;;4.80;99.90;;;4.73;96.88;101271.47;4983543;28;20582;-65
2022/12/28 01:31:22;;;;;;;1.73;1.08;;;4.80;99.90;;;4.78;96.80;101266.13;4998958;28;20737;-65
2022/12/28 01:33:49;;;;;;;3.38;1.65;;;4.80;99.90;;;4.79;96.69;101265.25;4988948;28;20238;-65
2022/12/28 01:36:26;;;;;;;1.92;1.35;;;4.80;99.90;;;4.91;95.58;101268.19;4988969;28;20253;-65
2022/12/28 01:39:00;;;;;;;1.10;1.05;;;4.90;99.90;;;4.87;96.62;101264.03;4974662;28;20221;-65
2022/12/28 01:41:28;;;;;;;2.25;2.05;;;4.90;99.90;;;4.87;96.60;101245.09;4974673;28;20310;-65
2022/12/28 01:43:55;;;;;;;3.05;2.40;;;4.90;99.90;;;4.66;97.17;101242.41;4985220;28;20233;-65
2022/12/28 01:46:34;;;;;;;1.20;1.10;;;4.90;99.90;;;4.81;96.59;101238.44;4987255;28;20211;-64
2022/12/28 01:49:19;;;;;;;1.25;1.02;;;4.90;99.90;;;4.67;97.30;101244.13;4992735;28;20203;-65
2022/12/28 01:52:06;;;;;;;3.55;2.20;;;4.80;99.90;;;4.79;96.42;101229.03;4993070;28;20673;-64
2022/12/28 01:54:41;;;;;;;1.15;1.02;;;4.90;99.90;;;4.82;96.36;101227.16;4985504;28;20636;-65
2022/12/28 01:57:08;;;;;;;2.42;1.80;;;4.90;99.90;;;5.01;95.31;101219.53;4990279;28;20228;-65
2022/12/28 01:59:40;;;;;;;1.45;1.00;;;4.90;99.90;;;4.97;95.42;101221.41;4986067;28;20565;-65
2022/12/28 02:02:09;;;;;;;2.15;2.05;;;4.90;99.90;;;4.97;94.86;101212.78;5005676;28;20198;-64
2022/12/28 02:04:36;;;;;;;3.00;1.75;;;5.00;99.90;;;4.87;95.51;101208.91;4990346;28;20265;-65
2022/12/28 02:07:03;;;;;;;0.82;0.82;;;4.90;99.90;;;4.89;95.05;101209.66;4974301;28;20692;-65
2022/12/28 02:09:39;;;;;;;1.20;1.17;;;5.00;99.90;;;5.04;94.77;101211.66;4972828;28;20215;-64
2022/12/28 02:12:11;;;;;;;4.82;2.05;;;5.00;99.90;;;4.94;95.50;101212.94;4976478;28;20204;-65
2022/12/28 02:14:39;;;;;;;3.97;2.38;;;5.00;99.90;;;5.00;95.23;101230.78;4990946;28;20210;-65
2022/12/28 02:17:08;;;;;;;2.20;1.58;;;5.00;99.90;;;5.04;94.57;101229.75;4985403;28;20306;-65
2022/12/28 02:19:47;;;;;;;2.80;2.42;;;5.10;99.90;;;5.18;94.75;101217.09;4987793;28;20268;-65
2022/12/28 02:22:56;;;;;;;1.40;1.30;;;5.10;99.90;;;5.10;95.09;101207.09;4984254;28;20210;-65
2022/12/28 02:25:37;;;;;;;1.67;1.40;;;5.10;99.90;;;5.14;95.34;101215.53;4992249;28;20209;-65
2022/12/28 02:28:47;;;;;;;3.95;1.25;;;5.20;99.90;;;5.11;95.74;101200.16;4988547;28;20203;-65
2022/12/28 02:31:33;;;;;;;1.90;1.38;;;5.10;99.90;;;5.12;96.70;101184.56;4991919;28;20233;-65
2022/12/28 02:34:16;;;;;;;1.30;1.30;;;5.20;99.90;;;5.31;95.92;101198.44;4990270;28;20218;-65
2022/12/28 02:36:54;;;;;;;1.92;1.38;;;5.30;99.90;;;5.41;95.78;101191.97;5006829;28;20689;-65
2022/12/28 02:39:35;;;;;;;2.53;1.30;;;5.30;99.90;;;5.48;95.69;101192.56;5007767;28;20213;-64
2022/12/28 02:42:04;;;;;;;1.25;0.90;;;5.40;99.90;;;5.51;95.24;101197.63;4977071;28;20207;-63
2022/12/28 02:50:06;;;;;;;0.88;0.60;;;5.50;99.90;;;5.55;95.19;101201.75;4976531;28;20236;-64
2022/12/28 02:53:20;;;;;;;1.77;1.20;;;5.50;99.90;;;5.53;95.15;101189.78;4984943;28;20431;-64
2022/12/28 02:56:07;;;;;;;0.98;0.98;;;5.60;99.90;;;5.59;95.05;101180.00;4987304;28;20686;-64
2022/12/28 02:59:01;;;;;;;0.90;0.90;;;5.60;99.90;;;5.52;95.54;101170.81;5005342;28;20913;-64
2022/12/28 03:01:55;;;;;;;0.60;0.60;;;5.60;99.90;;;5.44;95.97;101170.31;4988932;28;20730;-64
2022/12/28 03:05:12;;;;;;;2.83;2.60;;;5.60;99.90;;;5.49;95.76;101164.00;5005670;28;20676;-65
2022/12/28 03:08:18;;;;;;;1.13;0.90;;;5.50;99.90;;;5.64;95.06;101167.72;4988133;28;20210;-64
2022/12/28 03:11:22;;;;;;;2.15;1.48;;;5.60;99.90;;;5.61;95.32;101172.16;4984777;28;20231;-64
2022/12/28 03:14:01;;;;;;;0.50;0.50;;;5.60;99.90;;;5.68;94.63;101174.44;4977093;28;20637;-64
2022/12/28 03:25:41;;;;;;;2.60;1.23;;;5.60;99.90;;;5.56;95.37;101174.13;4979434;28;20218;-64
2022/12/28 03:31:07;;;;;;;1.13;1.02;;;5.70;99.90;;;5.64;95.51;101161.69;5004549;28;20222;-64
2022/12/28 03:33:39;;;;;;;0.63;0.63;;;5.60;99.90;;;5.69;95.02;101139.00;4991077;28;20198;-64
2022/12/28 03:36:14;;;;;;;0.75;0.75;;;5.70;99.90;;;5.67;95.20;101139.09;4989634;28;20278;-64
2022/12/28 03:39:27;;;;;;;1.73;1.55;;;5.70;99.90;;;5.67;94.94;101139.09;5005720;28;20228;-64
2022/12/28 03:44:56;;;;;;;0.50;0.38;;;5.70;99.90;;;5.65;95.51;101127.97;4990068;28;20203;-64
2022/12/28 03:47:25;;;;;;;1.35;1.25;;;5.60;99.90;;;5.56;96.07;101120.59;4990679;28;20213;-64
2022/12/28 03:49:52;;;;;;;1.20;1.10;;;5.70;99.90;;;5.65;95.63;101106.41;4981927;28;20235;-65
2022/12/28 03:52:19;;;;;;;3.88;2.30;;;5.70;99.90;;;5.55;95.80;101094.78;4978188;28;20199;-65
2022/12/28 03:54:46;;;;;;;1.70;1.33;;;5.70;99.90;;;5.63;95.68;101093.53;4989373;28;20265;-65
2022/12/28 03:57:15;;;;;;;0.88;0.75;;;5.70;99.90;;;5.58;95.93;101092.06;4991591;28;20223;-64
2022/12/28 03:59:42;;;;;;;0.70;0.70;;;5.70;99.90;;;5.65;95.00;101089.13;4985919;28;20726;-64
2022/12/28 04:02:09;;;;;;;1.02;1.00;;;5.70;99.90;;;5.68;95.63;101089.00;4979094;28;20253;-65
2022/12/28 04:04:36;;;;;;;0.40;0.40;;;5.70;99.90;;;5.71;95.10;101083.69;4986231;28;20203;-64
2022/12/28 04:07:03;;;;;;;1.05;1.05;;;5.70;99.90;;;5.77;94.43;101082.56;4976577;28;20596;-64
2022/12/28 04:09:31;;;;;;;2.45;1.15;;;5.70;99.90;;;5.76;94.72;101073.97;4976081;28;20212;-64
2022/12/28 04:11:58;;;;;;;1.58;1.48;;;5.80;99.90;;;5.66;95.26;101072.72;4982589;28;20206;-64
2022/12/28 04:14:25;;;;;;;2.47;1.40;;;5.80;99.90;;;5.74;94.66;101074.94;4983139;28;20240;-64
2022/12/28 04:16:51;;;;;;;0.60;0.60;;;5.80;99.90;;;5.85;94.25;101071.00;4993080;28;20210;-64
2022/12/28 04:19:18;;;;;;;0.50;0.50;;;5.80;99.90;;;5.82;94.14;101067.66;4978212;28;20207;-64
2022/12/28 04:21:45;;;;;;;1.60;1.40;;;5.80;99.90;;;5.69;95.24;101066.53;4985414;28;20675;-64
2022/12/28 04:24:12;;;;;;;1.08;0.90;;;5.80;99.90;;;5.87;94.41;101076.94;4994384;28;20213;-63
2022/12/28 04:26:39;;;;;;;1.92;1.55;;;5.80;99.90;;;5.92;94.03;101071.56;4987409;28;20200;-64
2022/12/28 04:29:06;;;;;;;0.93;0.82;;;5.90;99.90;;;5.86;94.58;101067.47;4992660;28;20734;-64
2022/12/28 04:31:32;;;;;;;1.48;1.38;;;5.90;99.90;;;5.82;94.56;101070.25;4978811;28;20235;-64
2022/12/28 04:33:59;;;;;;;1.00;0.60;;;5.90;99.90;;;6.02;93.50;101071.06;4974579;28;20211;-64
2022/12/28 04:36:26;;;;;;;4.25;2.22;;;6.00;99.90;;;5.98;93.77;101066.94;4975936;28;20211;-64
2022/12/28 04:38:53;;;;;;;0.70;0.70;;;6.00;99.90;;;6.09;92.57;101064.66;4976038;28;20228;-65
2022/12/28 04:41:20;;;;;;;0.80;0.80;;;6.00;99.90;;;6.00;94.02;101069.44;4988004;28;20222;-65
2022/12/28 04:43:47;;;;;;;3.33;1.25;;;6.00;99.90;;;5.93;93.77;101061.13;4987682;28;20218;-64
2022/12/28 04:46:15;;;;;;;1.50;0.77;;;6.00;99.90;;;5.92;93.97;101064.59;4987550;28;20262;-64
2022/12/28 04:48:43;;;;;;;2.58;1.77;;;6.00;99.90;;;5.98;93.63;101058.31;4984342;28;20208;-64
2022/12/28 04:51:25;;;;;;;10.60;1.30;;;6.00;99.90;;;6.06;92.88;101058.81;4984327;28;20257;-64
2022/12/28 04:53:54;;;;;;;1.27;1.17;;;6.00;99.90;;;5.97;94.16;101054.88;4985417;28;20213;-64
2022/12/28 04:56:24;;;;;;;1.00;1.00;;;6.00;99.90;;;5.97;94.11;101061.81;5008858;28;20432;-65
2022/12/28 04:58:56;;;;;;;0.75;0.75;;;6.00;99.90;;;5.97;93.21;101060.06;4994783;28;20603;-64
2022/12/28 05:01:23;;;;;;;0.75;0.75;;;6.00;99.90;;;6.00;93.98;101052.16;4984859;28;20220;-64
2022/12/28 05:03:53;;;;;;;1.23;1.23;;;6.00;99.90;;;6.14;93.21;101057.53;4990364;28;20217;-64
2022/12/28 05:06:26;;;;;;;0.93;0.80;;;6.10;99.90;;;6.05;93.23;101060.53;4992398;28;20196;-64
2022/12/28 05:08:54;;;;;;;1.50;1.40;;;6.10;99.90;;;6.02;93.12;101042.56;4973836;28;20215;-64
2022/12/28 05:11:26;;;;;;;0.73;0.73;;;6.10;99.90;;;6.02;93.91;101058.13;4974979;28;20228;-62
2022/12/28 05:13:53;;;;;;;0.65;0.65;;;6.10;99.90;;;5.98;93.18;101054.00;4994054;28;20203;-64
2022/12/28 05:16:24;;;;;;;1.13;1.00;;;6.10;99.90;;;5.98;93.45;101056.56;4992340;28;20290;-64
2022/12/28 05:18:51;;;;;;;1.63;0.60;;;6.00;99.90;;;6.06;93.64;101045.84;4999259;28;20229;-65
2022/12/28 05:21:24;;;;;;;1.00;1.00;;;6.10;99.90;;;6.13;92.87;101048.06;4991771;28;20224;-66
2022/12/28 05:23:52;;;;;;;0.75;0.75;;;6.10;99.90;;;6.08;92.71;101050.06;4984480;28;20206;-64
2022/12/28 05:26:24;;;;;;;1.33;0.57;;;6.10;99.90;;;5.96;93.03;101039.44;4984954;28;20201;-65
2022/12/28 05:28:51;;;;;;;0.95;0.93;;;6.10;99.90;;;6.17;92.52;101033.25;4989482;28;20222;-64
2022/12/28 05:31:21;;;;;;;3.00;1.40;;;6.10;99.90;;;6.06;93.23;101031.16;4988824;28;20227;-64
2022/12/28 05:33:48;;;;;;;1.50;1.40;;;6.10;99.90;;;6.04;93.06;101020.03;4987254;28;20672;-64
2022/12/28 05:36:19;;;;;;;1.05;0.85;;;6.10;99.90;;;6.00;93.61;101015.91;4993151;28;20214;-64
2022/12/28 05:38:46;;;;;;;1.90;0.65;;;6.10;99.90;;;6.00;93.96;101018.50;4991433;28;20232;-64
2022/12/28 05:41:21;;;;;;;0.75;0.70;;;6.10;99.90;;;6.12;92.61;101015.31;4993621;28;20223;-64
2022/12/28 05:43:49;;;;;;;0.77;0.77;;;6.10;99.90;;;6.05;92.76;101002.72;4988429;28;20672;-64
2022/12/28 05:46:23;;;;;;;1.63;1.27;;;6.10;99.90;;;6.17;92.38;101003.00;4992466;28;20210;-64
2022/12/28 05:48:50;;;;;;;1.05;0.95;;;6.20;99.90;;;6.14;92.56;101004.88;4991736;28;20237;-64
2022/12/28 05:51:20;;;;;;;0.50;0.50;;;6.20;99.90;;;6.12;92.38;101011.88;4992027;28;20242;-63
2022/12/28 05:53:47;;;;;;;1.00;1.00;;;6.20;99.90;;;6.08;92.54;101006.00;4991891;28;20203;-65
2022/12/28 05:56:21;;;;;;;1.20;0.70;;;6.20;99.90;;;6.15;92.17;100997.00;4985138;28;20211;-64
2022/12/28 05:58:57;;;;;;;4.20;1.50;;;6.20;99.90;;;6.14;92.61;101005.72;4987261;28;20219;-64
2022/12/28 06:01:29;;;;;;;1.48;0.52;;;6.20;99.90;;;6.08;92.62;101013.78;4983048;28;20223;-64
2022/12/28 06:04:05;;;;;;;0.82;0.82;;;6.20;99.90;;;6.21;92.27;101011.44;4992785;28;20210;-65
2022/12/28 06:06:34;;;;;;;0.75;0.75;;;6.20;99.90;;;6.28;91.71;101005.06;4982776;28;20207;-64
2022/12/28 06:09:02;;;;;;;0.50;0.50;;;6.30;99.90;;;6.21;92.01;101003.66;4990832;28;20239;-64
2022/12/28 06:11:30;;;;;;;0.75;0.75;;;6.30;99.90;;;6.25;91.26;101005.19;4990735;28;20781;-64
2022/12/28 06:13:58;;;;;;;0.60;0.60;;;6.30;99.90;;;6.28;91.71;100998.09;4993883;28;20222;-64
2022/12/28 06:16:29;;;;;;;0.70;0.70;;;6.30;99.90;;;6.32;91.42;100996.22;4989867;28;20217;-64
2022/12/28 06:18:56;;;;;;;0.30;0.30;;;6.30;99.90;;;6.28;91.75;100999.88;4990711;28;20230;-64
2022/12/28 06:21:28;;;;;;;0.68;0.63;;;6.30;99.90;;;6.39;91.03;100991.59;4982564;28;20235;-64
2022/12/28 06:23:58;;;;;;;0.80;0.80;;;6.30;99.90;;;6.25;91.95;100984.47;4982997;28;20207;-64
2022/12/28 06:26:28;;;;;;;2.15;1.15;;;6.30;99.90;;;6.33;91.80;100978.91;4991697;28;20200;-64
2022/12/28 06:28:54;;;;;;;2.55;0.75;;;6.30;99.90;;;6.33;91.55;100981.50;4989533;28;20325;-65
2022/12/28 06:31:27;;;;;;;1.33;1.23;;;6.40;99.90;;;6.31;91.28;100986.75;4983376;28;20223;-64
2022/12/28 06:33:57;;;;;;;0.93;0.93;;;6.30;99.90;;;6.31;92.14;100978.13;4988307;28;20649;-65
2022/12/28 06:36:29;;;;;;;0.65;0.65;;;6.30;99.90;;;6.44;91.10;100974.03;4992446;28;20211;-65
2022/12/28 06:38:57;;;;;;;0.73;0.73;;;6.40;99.90;;;6.33;91.04;100960.75;4989860;28;20227;-64
2022/12/28 06:41:26;;;;;;;0.88;0.82;;;6.30;99.90;;;6.38;90.42;100971.75;4992169;28;20223;-64
2022/12/28 06:43:53;;;;;;;1.05;1.05;;;6.40;99.90;;;6.40;90.49;100975.09;4991851;28;20204;-64
2022/12/28 06:46:23;;;;;;;0.40;0.40;;;6.40;99.90;;;6.36;91.47;100976.16;5006326;28;20216;-64
2022/12/28 06:48:50;;;;;;;1.00;0.80;;;6.30;99.90;;;6.44;90.58;100979.22;4990374;28;20204;-64
2022/12/28 06:51:21;;;;;;;0.43;0.43;;;6.40;99.90;;;6.43;90.73;100969.78;4999546;28;20249;-65
2022/12/28 06:53:50;;;;;;;1.77;1.40;;;6.40;99.90;;;6.47;90.77;100968.72;4990664;28;20680;-64
2022/12/28 06:56:21;;;;;;;0.70;0.70;;;6.40;99.90;;;6.53;90.40;100958.03;4980178;28;20705;-64
2022/12/28 06:58:49;;;;;;;4.23;1.17;;;6.50;99.90;;;6.59;90.25;100958.56;4979834;28;20704;-64
2022/12/28 07:01:20;;;;;;;0.90;0.90;;;6.50;99.90;;;6.64;89.25;100960.94;4979871;28;20928;-64
2022/12/28 07:03:49;;;;;;;0.80;0.80;;;6.60;99.90;;;6.54;89.91;100957.13;4982226;28;20680;-64
2022/12/28 07:06:20;;;;;;;0.67;0.67;;;6.60;99.90;;;6.51;89.69;100970.22;4980915;28;21014;-65
2022/12/28 07:08:48;;;;;;;1.10;1.10;;;6.50;99.90;;;6.52;89.93;100967.56;4970589;28;20622;-64
2022/12/28 07:11:20;;;;;;;0.55;0.55;;;6.50;99.90;;;6.51;89.57;100975.41;4989130;28;20662;-64
2022/12/28 07:13:47;;;;;;;0.85;0.85;;;6.50;99.90;;;6.65;88.93;100971.22;4991557;28;20624;-65
2022/12/28 07:16:25;;;;;;;0.60;0.60;;;6.60;99.90;;;6.74;88.75;100977.69;4987070;28;20200;-64
2022/12/28 07:18:52;;;;;;;0.20;0.20;;;6.60;99.90;;;6.76;88.64;100981.03;4991052;28;20694;-64
2022/12/28 07:21:24;;;;;;;2.30;1.03;;;6.70;99.90;;;6.67;87.85;100971.13;4990415;28;20654;-64
2022/12/28 07:23:53;;;;;;;2.00;0.60;;;6.70;99.90;;;6.72;88.11;100969.16;4990814;28;20618;-64
2022/12/28 07:26:25;;;;;;;1.07;1.00;;;6.60;99.90;;;6.82;87.77;100963.41;4989253;28;20639;-64
2022/12/28 07:28:54;;;;;;;0.70;0.70;;;6.70;99.90;;;6.76;87.39;100955.13;4991243;28;20665;-64
2022/12/28 07:31:34;;;;;;;0.60;0.60;;;6.70;99.90;;;6.77;87.76;100952.44;4987597;28;21372;-64
2022/12/28 07:34:09;;;;;;;0.70;0.70;;;6.70;99.90;;;6.80;87.56;100951.44;4972255;28;20619;-64
2022/12/28 07:36:37;;;;;;;0.83;0.83;;;6.80;99.90;;;6.80;87.35;100948.84;4980567;28;20645;-64
2022/12/28 07:39:04;;;;;;;0.40;0.40;;;6.80;99.90;;;6.73;89.03;100947.50;4989790;28;20662;-65
2022/12/28 07:41:32;;;;;;;0.80;0.80;;;6.70;99.90;;;6.76;88.52;100947.34;4990476;28;20650;-64
2022/12/28 07:44:01;;;;;;;0.43;0.43;;;6.70;99.90;;;6.73;88.95;100945.72;4990910;28;20674;-64
2022/12/28 07:46:33;;;;;;;2.20;1.33;;;6.70;99.90;;;6.80;88.67;100938.47;4989174;28;20623;-64
2022/12/28 07:49:00;;;;;;;1.20;0.50;;;6.80;99.90;;;6.92;87.21;100950.84;4989426;28;20705;-64
2022/12/28 07:51:35;;;;;;;0.80;0.80;;;6.80;99.90;;;6.81;88.63;100951.38;4975963;28;20671;-64
2022/12/28 07:54:04;;;;;;;1.63;1.10;;;6.80;99.90;;;6.97;88.12;100954.00;4989707;28;21086;-64
2022/12/28 07:56:32;;;;;;;0.97;0.90;;;6.90;99.90;;;6.75;88.31;100943.06;4986848;28;20553;-64
2022/12/28 07:59:03;;;;;;;1.10;1.10;;;6.80;99.90;;;6.78;88.90;100945.50;4988854;28;20677;-64
2022/12/28 08:01:33;;;;;;;0.87;0.87;;;6.80;99.90;;;6.82;88.23;100942.66;4990127;28;20647;-63
2022/12/28 08:04:04;;;;;;;1.10;1.10;;;6.80;99.90;;;6.97;87.72;100928.91;4988557;28;20684;-64
2022/12/28 08:06:35;;;;;;;1.23;1.00;;;6.90;99.90;;;6.97;87.41;100917.69;4983865;28;20619;-64
2022/12/28 08:09:04;;;;;;;0.50;0.50;;;7.00;99.90;;;6.99;87.69;100919.28;4990336;28;20639;-64
2022/12/28 08:11:34;;;;;;;1.17;1.07;;;7.00;99.90;;;6.93;87.30;100918.78;4990181;28;20658;-64
2022/12/28 08:14:03;;;;;;;1.30;1.20;;;7.00;99.90;;;6.95;86.85;100919.53;4987372;28;20628;-64
2022/12/28 08:16:34;;;;;;;0.70;0.70;;;7.00;99.90;;;6.92;88.46;100909.31;4975359;28;20631;-64
2022/12/28 08:19:01;;;;;;;1.17;0.60;;;6.90;99.90;;;6.93;87.15;100911.84;4980229;28;20667;-64
2022/12/28 08:21:31;;;;;;;1.30;1.05;;;7.00;99.90;;;7.12;86.43;100922.06;4989965;28;20705;-64
2022/12/28 08:23:59;;;;;;;0.40;0.40;;;7.00;99.90;;;7.05;87.46;100912.94;4988703;28;20664;-62
2022/12/28 08:26:33;;;;;;;0.55;0.55;;;7.00;99.90;;;7.12;87.33;100911.69;5001458;28;20689;-64
2022/12/28 08:29:05;;;;;;;0.57;0.57;;;7.10;99.90;;;7.16;86.34;100917.53;4976092;28;20305;-66
2022/12/28 08:31:35;;;;;;;0.60;0.60;;;7.20;99.90;;;7.20;86.44;100919.09;4985264;28;20717;-65
2022/12/28 08:34:04;;;;;;;1.20;0.83;;;7.10;99.90;;;7.15;86.81;100915.88;4981496;28;20642;-65
2022/12/28 08:36:31;;;;;;;0.40;0.40;;;7.20;99.90;;;7.36;86.68;100907.78;4990117;28;20671;-65
2022/12/28 08:39:00;;;;;;;0.50;0.50;;;7.20;99.90;;;7.50;86.05;100912.22;4977192;28;20681;-65
2022/12/28 08:41:28;;;;;;;0.63;0.50;;;7.30;99.90;;;7.63;85.68;100908.03;4978328;28;21119;-65
2022/12/28 08:43:56;;;;;;;0.40;0.40;;;7.50;99.90;;;7.95;83.77;100903.63;4986752;28;20661;-65
2022/12/28 08:46:25;;;;;;;0.40;0.40;;;7.70;99.90;;;8.52;81.42;100898.53;4985606;28;21225;-64
2022/12/28 08:48:54;;;;;;;0.77;0.50;;;8.00;99.90;;;8.80;79.75;100902.91;4981507;28;20636;-65
2022/12/28 08:51:24;;;;;;;1.40;0.90;;;8.30;99.90;;;9.49;76.43;100904.72;4987490;28;21362;-65
2022/12/28 08:53:51;;;;;;;0.70;0.70;;;8.80;99.90;;;9.56;76.34;100906.81;4990570;28;20642;-64
2022/12/28 08:56:27;;;;;;;0.90;0.90;;;9.00;99.90;;;11.09;71.72;100904.41;4979553;28;20692;-63
2022/12/28 08:58:55;;;;;;;0.63;0.63;;;9.80;99.90;;;11.69;68.49;100908.75;4985510;28;20664;-63
2022/12/28 09:01:32;;;;;;;1.00;1.00;;;10.60;99.90;;;12.77;64.55;100908.53;4990059;28;20651;-63
2022/12/28 09:04:19;;;;;;;0.80;0.80;;;11.40;99.90;;;13.03;61.87;100908.16;4980927;28;20635;-63
2022/12/28 09:06:47;;;;;;;0.70;0.70;;;12.00;99.90;;;13.81;59.65;100908.94;4990884;28;21198;-64
2022/12/28 09:09:18;;;;;;;1.27;1.20;;;12.50;99.90;;;12.71;62.64;100899.38;4992272;28;21179;-64
2022/12/28 09:11:45;;;;;;;0.97;0.97;;;12.20;99.90;;;11.00;68.16;100899.81;4992336;28;20634;-63
2022/12/28 09:14:13;;;;;;;0.40;0.40;;;11.40;99.90;;;10.50;70.39;100901.50;4992548;28;20638;-63
2022/12/28 09:16:50;;;;;;;0.47;0.40;;;10.90;99.90;;;10.28;71.61;100905.66;4984002;28;20718;-63
2022/12/28 09:19:17;;;;;;;0.60;0.60;;;10.40;99.90;;;9.95;73.28;100895.63;4992466;28;20749;-63
2022/12/28 09:21:47;;;;;;;0.40;0.40;;;10.10;99.90;;;9.99;73.02;100905.75;4992418;28;20662;-62
2022/12/28 09:24:14;;;;;;;2.67;1.30;;;9.90;99.90;;;9.83;73.85;100906.84;4992474;28;20621;-62
2022/12/28 09:26:41;;;;;;;0.80;0.60;;;9.80;99.90;;;9.54;74.32;100893.06;4986838;28;20645;-63
2022/12/28 09:29:12;;;;;;;0.47;0.47;;;9.60;99.90;;;9.55;74.76;100902.56;4978979;28;20627;-65
2022/12/28 09:31:40;;;;;;;1.33;0.90;;;9.50;99.90;;;9.66;75.18;100897.50;4983001;28;20664;-65
2022/12/28 09:34:11;;;;;;;0.50;0.50;;;9.40;99.90;;;9.47;75.87;100891.78;4993177;28;21181;-65
2022/12/28 09:36:58;;;;;;;0.67;0.67;;;9.40;99.90;;;9.43;76.08;100892.94;4992867;28;20635;-65
2022/12/28 09:39:25;;;;;;;0.60;0.60;;;9.40;99.90;;;9.51;76.17;100885.44;4993284;28;20668;-65
2022/12/28 09:42:23;;;;;;;0.40;0.40;;;9.40;99.90;;;9.62;75.62;100887.38;4992596;28;20638;-65
2022/12/28 09:45:02;;;;;;;0.50;0.50;;;9.40;99.90;;;9.54;75.74;100887.03;5008532;28;20614;-64
2022/12/28 09:47:50;;;;;;;0.60;0.60;;;9.40;99.90;;;9.65;75.57;100884.56;4991462;28;20636;-65
2022/12/28 09:50:17;;;;;;;0.60;0.60;;;9.50;99.90;;;9.53;76.20;100878.38;4987830;28;20665;-65
2022/12/28 09:53:05;;;;;;;1.40;0.70;;;9.40;99.90;;;9.41;75.82;100876.56;4976466;28;20677;-64
2022/12/28 09:55:35;;;;;;;0.63;0.63;;;9.50;99.90;;;9.47;75.97;100876.16;4985431;28;20642;-65
2022/12/28 09:58:04;;;;;;;0.30;0.30;;;9.40;99.90;;;9.36;76.79;100879.44;4975204;28;20645;-63
2022/12/28 10:00:42;;;;;;;0.40;0.40;;;9.30;99.90;;;9.43;76.13;100879.06;4974996;28;20697;-63
2022/12/28 10:03:37;;;;;;;1.17;1.03;;;9.30;99.90;;;9.50;75.81;100880.34;4991989;28;20629;-63
2022/12/28 10:06:14;;;;;;;0.93;0.50;;;9.40;99.90;;;9.58;75.27;100876.31;4991753;28;20666;-62
2022/12/28 10:08:51;;;;;;;0.40;0.40;;;9.40;99.90;;;9.77;74.70;100875.97;4991059;28;21028;-63
2022/12/28 10:11:41;;;;;;;0.33;0.33;;;9.50;99.90;;;9.64;74.95;100883.75;4990839;28;20704;-63
2022/12/28 10:14:40;;;;;;;0.67;0.67;;;9.50;99.90;;;10.03;73.04;100870.72;4990830;28;20671;-63
2022/12/28 10:17:11;;;;;;;0.90;0.90;;;9.70;99.90;;;9.80;74.27;100876.59;4997131;28;20632;-63
2022/12/28 10:19:38;;;;;;;0.50;0.50;;;9.70;99.90;;;10.17;72.24;100863.78;4994088;28;20707;-62
2022/12/28 10:22:10;;;;;;;0.57;0.57;;;9.90;99.90;;;10.14;73.13;100857.84;4981848;28;21224;-62
2022/12/28 10:24:39;;;;;;;2.43;0.80;;;10.00;99.90;;;9.82;73.78;100864.31;4990730;28;20610;-63
2022/12/28 10:27:30;;;;;;;1.33;0.60;;;9.90;99.90;;;9.96;73.58;100863.41;4990273;28;20626;-63
2022/12/28 10:30:00;;;;;;;1.73;0.90;;;9.80;99.90;;;9.93;73.77;100859.22;4983102;28;20682;-63
2022/12/28 10:32:48;;;;;;;0.80;0.60;;;9.70;99.90;;;9.92;74.00;100864.56;4971837;28;20611;-63
2022/12/28 10:35:37;;;;;;;0.73;0.73;;;9.70;99.90;;;9.87;73.42;100854.44;4988774;28;20634;-63
2022/12/28 10:38:25;;;;;;;0.50;0.50;;;9.70;99.90;;;10.06;73.33;100854.03;5000340;28;20627;-64
2022/12/28 10:41:14;;;;;;;0.50;0.50;;;9.80;99.90;;;10.04;73.53;100848.09;4991054;28;20634;-63
2022/12/28 10:43:51;;;;;;;0.50;0.50;;;9.90;99.90;;;10.13;73.86;100839.72;4985771;28;20674;-63
2022/12/28 10:46:51;;;;;;;0.43;0.43;;;9.90;99.90;;;10.21;73.76;100832.19;4999989;28;21209;-63
2022/12/28 10:49:19;;;;;;;0.60;0.60;;;10.00;99.90;;;9.90;74.54;100828.16;4989505;28;20642;-63
2022/12/28 10:52:18;;;;;;;0.50;0.50;;;9.90;99.90;;;10.04;74.57;100822.03;4989566;28;20638;-63
2022/12/28 10:54:47;;;;;;;0.30;0.30;;;9.90;99.90;;;10.01;74.21;100824.81;4973096;28;21362;-62
2022/12/28 10:57:34;;;;;;;0.30;0.30;;;9.90;99.90;;;10.07;74.18;100814.00;4976520;28;20652;-62
2022/12/28 11:00:21;;;;;;;0.40;0.40;;;10.00;99.90;;;10.35;73.78;100803.41;4990161;28;20709;-63
2022/12/28 11:02:48;;;;;;;0.30;0.30;;;10.10;99.90;;;10.32;73.56;100802.78;4983775;28;20642;-63
2022/12/28 11:05:23;;;;;;;0.20;0.20;;;10.10;99.90;;;10.56;72.41;100806.34;4985486;28;20993;-63
2022/12/28 11:08:05;;;;;;;0.40;0.40;;;10.20;99.90;;;10.40;72.90;100790.03;4987573;28;20757;-63
2022/12/28 11:10:32;;;;;;;0.73;0.60;;;10.20;99.90;;;10.35;73.50;100787.75;4989213;28;20654;-63